createdAt,value
2018-03-17T00:00:03.679Z,96655.52
2018-03-17T00:02:32.792Z,96653.47
2018-03-17T00:05:01.964Z,96658.42
2018-03-17T00:07:31.191Z,96656.68
2018-03-17T00:10:00.328Z,96661.48
2018-03-17T00:12:29.612Z,96658.52
2018-03-17T00:15:01.091Z,96657.23
2018-03-17T00:17:30.218Z,96656.20
2018-03-17T00:19:59.296Z,96657.98
2018-03-17T00:22:28.338Z,96653.16
2018-03-17T00:24:57.790Z,96647.48
2018-03-17T00:27:26.742Z,96654.50
2018-03-17T00:29:55.742Z,96651.56
2018-03-17T00:32:24.871Z,96649.91
2018-03-17T00:34:53.880Z,96653.44
2018-03-17T00:37:22.916Z,96644.95
2018-03-17T00:39:52.091Z,96643.09
2018-03-17T00:42:21.287Z,96647.90
2018-03-17T00:44:50.341Z,96650.27
2018-03-17T00:47:19.335Z,96643.27
2018-03-17T00:49:48.356Z,96638.72
2018-03-17T00:52:17.403Z,96640.84
2018-03-17T00:54:46.352Z,96642.14
2018-03-17T00:57:15.374Z,96641.13
2018-03-17T00:59:44.439Z,96641.77
2018-03-17T01:02:13.831Z,96635.33
2018-03-17T01:04:42.966Z,96632.43
2018-03-17T01:07:12.112Z,96627.12
2018-03-17T01:09:41.221Z,96624.73
2018-03-17T01:12:10.313Z,96624.20
2018-03-17T01:14:39.396Z,96624.50
2018-03-17T01:17:08.424Z,96618.17
2018-03-17T01:19:39.039Z,96622.98
2018-03-17T01:22:08.229Z,96619.73
2018-03-17T01:24:37.229Z,96616.70
2018-03-17T01:27:06.288Z,96621.41
2018-03-17T01:29:36.077Z,96620.45
2018-03-17T01:32:05.113Z,96609.63
2018-03-17T01:34:34.113Z,96613.00
2018-03-17T01:37:03.061Z,96608.66
2018-03-17T01:39:32.167Z,96610.72
2018-03-17T01:42:02.014Z,96609.38
2018-03-17T01:44:30.965Z,96596.09
2018-03-17T01:46:59.881Z,96596.20
2018-03-17T01:49:28.950Z,96596.60
2018-03-17T01:51:58.304Z,96590.76
2018-03-17T01:54:33.061Z,96584.62
2018-03-17T01:57:02.140Z,96580.80
2018-03-17T01:59:31.310Z,96575.75
2018-03-17T02:02:00.382Z,96571.00
2018-03-17T02:04:29.412Z,96562.83
2018-03-17T02:06:58.400Z,96561.70
2018-03-17T02:09:27.358Z,96556.26
2018-03-17T02:11:56.445Z,96556.45
2018-03-17T02:14:25.459Z,96553.30
2018-03-17T02:16:54.492Z,96546.30
2018-03-17T02:19:23.576Z,96555.41
2018-03-17T02:21:52.573Z,96551.95
2018-03-17T02:24:21.574Z,96553.68
2018-03-17T02:26:50.945Z,96551.95
2018-03-17T02:29:19.885Z,96553.33
2018-03-17T02:31:49.920Z,96549.67
2018-03-17T02:34:18.975Z,96549.19
2018-03-17T02:36:48.019Z,96547.89
2018-03-17T02:39:17.112Z,96550.44
2018-03-17T02:41:46.180Z,96549.64
2018-03-17T02:44:15.138Z,96540.99
2018-03-17T02:46:44.178Z,96542.31
2018-03-17T02:49:13.173Z,96540.99
2018-03-17T02:51:42.278Z,96540.67
2018-03-17T02:54:11.453Z,96539.30
2018-03-17T02:56:40.447Z,96534.59
2018-03-17T02:59:09.387Z,96536.16
2018-03-17T03:01:38.370Z,96533.42
2018-03-17T03:04:07.664Z,96536.58
2018-03-17T03:06:36.743Z,96532.45
2018-03-17T03:09:06.897Z,96525.48
2018-03-17T03:11:35.851Z,96532.14
2018-03-17T03:14:04.909Z,96536.45
2018-03-17T03:16:33.951Z,96534.82
2018-03-17T03:19:02.889Z,96534.57
2018-03-17T03:21:31.907Z,96536.33
2018-03-17T03:24:00.952Z,96541.47
2018-03-17T03:26:29.939Z,96535.33
2018-03-17T03:29:00.014Z,96536.58
2018-03-17T03:31:28.947Z,96536.74
2018-03-17T03:33:57.921Z,96534.95
2018-03-17T03:36:26.941Z,96533.90
2018-03-17T03:38:55.922Z,96539.09
2018-03-17T03:41:24.870Z,96538.25
2018-03-17T03:43:53.968Z,96533.61
2018-03-17T03:46:23.058Z,96530.81
2018-03-17T03:51:44.955Z,96528.29
2018-03-17T03:54:14.180Z,96530.67
2018-03-17T03:56:43.297Z,96526.88
2018-03-17T03:59:12.452Z,96526.31
2018-03-17T04:01:41.499Z,96526.37
2018-03-17T04:04:10.657Z,96520.04
2018-03-17T04:06:39.743Z,96521.55
2018-03-17T04:09:08.825Z,96517.70
2018-03-17T04:11:37.904Z,96506.40
2018-03-17T04:14:06.926Z,96507.98
2018-03-17T04:16:35.969Z,96502.83
2018-03-17T04:19:05.047Z,96501.82
2018-03-17T04:21:34.816Z,96503.75
2018-03-17T04:24:03.921Z,96505.00
2018-03-17T04:26:32.940Z,96504.58
2018-03-17T04:29:02.321Z,96507.00
2018-03-17T04:31:31.397Z,96504.36
2018-03-17T04:34:00.493Z,96510.47
2018-03-17T04:36:29.540Z,96510.37
2018-03-17T04:38:58.726Z,96512.23
2018-03-17T04:41:27.778Z,96504.44
2018-03-17T04:43:56.825Z,96509.63
2018-03-17T04:46:25.864Z,96507.41
2018-03-17T04:48:54.963Z,96511.57
2018-03-17T04:51:24.065Z,96516.39
2018-03-17T04:53:53.187Z,96503.29
2018-03-17T04:56:22.280Z,96510.73
2018-03-17T04:58:51.351Z,96511.47
2018-03-17T05:01:20.442Z,96507.34
2018-03-17T05:03:49.636Z,96510.63
2018-03-17T05:06:19.695Z,96508.03
2018-03-17T05:08:48.755Z,96503.91
2018-03-17T05:11:17.778Z,96503.56
2018-03-17T05:13:46.887Z,96500.11
2018-03-17T05:16:16.052Z,96500.05
2018-03-17T05:18:45.154Z,96497.16
2018-03-17T05:21:14.409Z,96492.17
2018-03-17T05:23:43.555Z,96493.55
2018-03-17T05:26:12.753Z,96495.42
2018-03-17T05:28:41.844Z,96496.00
2018-03-17T05:31:11.016Z,96495.91
2018-03-17T05:33:40.068Z,96502.66
2018-03-17T05:36:09.113Z,96503.25
2018-03-17T05:38:38.271Z,96500.98
2018-03-17T05:41:07.297Z,96495.99
2018-03-17T05:43:36.345Z,96494.20
2018-03-17T05:46:05.508Z,96481.91
2018-03-17T05:48:35.331Z,96478.45
2018-03-17T05:51:04.628Z,96480.78
2018-03-17T05:53:33.925Z,96481.25
2018-03-17T05:56:03.253Z,96474.09
2018-03-17T05:58:32.368Z,96476.28
2018-03-17T06:01:01.524Z,96467.75
2018-03-17T06:03:30.649Z,96468.65
2018-03-17T06:05:59.872Z,96466.34
2018-03-17T06:08:29.164Z,96466.38
2018-03-17T06:10:58.554Z,96466.70
2018-03-17T06:13:28.666Z,96460.57
2018-03-17T06:16:13.691Z,96464.80
2018-03-17T06:18:42.819Z,96459.20
2018-03-17T06:21:11.968Z,96460.05
2018-03-17T06:23:41.051Z,96461.14
2018-03-17T06:26:11.058Z,96463.88
2018-03-17T06:28:40.259Z,96459.39
2018-03-17T06:31:09.283Z,96463.26
2018-03-17T06:33:38.446Z,96463.59
2018-03-17T06:36:08.484Z,96467.27
2018-03-17T06:38:37.731Z,96466.40
2018-03-17T06:41:06.891Z,96458.98
2018-03-17T06:43:37.051Z,96460.48
2018-03-17T06:46:06.083Z,96466.75
2018-03-17T06:48:35.091Z,96461.94
2018-03-17T06:51:04.276Z,96466.23
2018-03-17T06:53:33.388Z,96467.61
2018-03-17T06:56:02.488Z,96465.02
2018-03-17T06:58:31.583Z,96466.45
2018-03-17T07:01:00.648Z,96468.84
2018-03-17T07:03:29.830Z,96470.97
2018-03-17T07:05:58.860Z,96462.51
2018-03-17T07:08:27.955Z,96465.86
2018-03-17T07:10:57.308Z,96470.54
2018-03-17T07:13:26.463Z,96469.75
2018-03-17T07:15:55.669Z,96469.09
2018-03-17T07:18:24.751Z,96470.80
2018-03-17T07:20:54.053Z,96472.03
2018-03-17T07:23:23.158Z,96462.88
2018-03-17T07:25:52.234Z,96464.80
2018-03-17T07:28:21.407Z,96461.75
2018-03-17T07:30:50.642Z,96465.18
2018-03-17T07:33:19.812Z,96461.00
2018-03-17T07:35:48.936Z,96461.71
2018-03-17T07:38:18.228Z,96459.20
2018-03-17T07:40:47.438Z,96458.59
2018-03-17T07:43:16.852Z,96455.56
2018-03-17T07:45:45.933Z,96456.19
2018-03-17T07:48:15.029Z,96456.63
2018-03-17T07:50:44.038Z,96453.23
2018-03-17T07:53:13.238Z,96452.89
2018-03-17T07:55:42.360Z,96450.36
2018-03-17T07:58:11.419Z,96447.05
2018-03-17T08:00:40.531Z,96447.34
2018-03-17T08:03:09.629Z,96444.39
2018-03-17T08:05:38.806Z,96442.50
2018-03-17T08:08:07.994Z,96447.48
2018-03-17T08:10:37.740Z,96449.97
2018-03-17T08:13:07.194Z,96444.26
2018-03-17T08:15:36.215Z,96443.86
2018-03-17T08:18:05.375Z,96437.20
2018-03-17T08:20:34.598Z,96430.25
2018-03-17T08:23:03.751Z,96437.67
2018-03-17T08:25:33.955Z,96425.09
2018-03-17T08:28:03.053Z,96431.02
2018-03-17T08:30:32.219Z,96423.25
2018-03-17T08:33:01.268Z,96432.42
2018-03-17T08:35:30.384Z,96425.38
2018-03-17T08:37:59.597Z,96429.38
2018-03-17T08:40:28.644Z,96423.11
2018-03-17T08:42:57.792Z,96418.00
2018-03-17T08:45:27.319Z,96421.47
2018-03-17T08:47:56.588Z,96418.69
2018-03-17T08:50:25.639Z,96413.73
2018-03-17T08:52:56.069Z,96408.69
2018-03-17T08:55:25.149Z,96409.25
2018-03-17T08:57:54.278Z,96415.98
2018-03-17T09:00:23.543Z,96410.47
2018-03-17T09:02:52.951Z,96406.82
2018-03-17T09:05:22.126Z,96406.52
2018-03-17T09:07:54.860Z,96401.93
2018-03-17T09:10:24.192Z,96409.42
2018-03-17T09:12:53.501Z,96411.42
2018-03-17T09:15:24.945Z,96402.60
2018-03-17T09:17:54.093Z,96410.86
2018-03-17T09:20:23.689Z,96404.08
2018-03-17T09:22:52.835Z,96401.00
2018-03-17T09:25:22.388Z,96412.41
2018-03-17T09:27:51.403Z,96404.50
2018-03-17T09:30:20.652Z,96410.05
2018-03-17T09:32:51.375Z,96401.80
2018-03-17T09:35:20.408Z,96403.59
2018-03-17T09:37:49.461Z,96390.77
2018-03-17T09:40:18.508Z,96394.46
2018-03-17T09:42:47.809Z,96391.72
2018-03-17T09:45:16.921Z,96394.31
2018-03-17T09:47:46.020Z,96394.61
2018-03-17T09:50:15.112Z,96390.63
2018-03-17T09:52:44.443Z,96395.23
2018-03-17T09:55:13.540Z,96391.70
2018-03-17T09:57:42.690Z,96395.48
2018-03-17T10:00:11.944Z,96391.16
2018-03-17T10:02:41.589Z,96388.18
2018-03-17T10:05:10.659Z,96387.34
2018-03-17T10:07:39.705Z,96381.77
2018-03-17T10:10:08.765Z,96387.95
2018-03-17T10:12:43.779Z,96379.69
2018-03-17T10:15:12.901Z,96372.33
2018-03-17T10:17:41.951Z,96373.64
2018-03-17T10:20:10.981Z,96372.55
2018-03-17T10:22:39.988Z,96367.34
2018-03-17T10:25:09.497Z,96366.62
2018-03-17T10:27:38.732Z,96362.09
2018-03-17T10:30:07.850Z,96360.84
2018-03-17T10:32:36.967Z,96359.48
2018-03-17T10:35:06.138Z,96355.98
2018-03-17T10:37:35.226Z,96358.55
2018-03-17T10:40:05.693Z,96355.52
2018-03-17T10:42:34.772Z,96358.98
2018-03-17T10:45:04.018Z,96348.83
2018-03-17T10:47:33.182Z,96355.94
2018-03-17T10:50:02.737Z,96355.94
2018-03-17T10:52:31.808Z,96355.94
2018-03-17T10:55:00.982Z,96350.54
2018-03-17T10:57:30.219Z,96351.53
2018-03-17T11:00:00.200Z,96362.47
2018-03-17T11:05:23.951Z,96344.77
2018-03-17T11:16:31.063Z,96340.58
2018-03-17T11:19:00.165Z,96351.56
2018-03-17T11:21:30.839Z,96354.46
2018-03-17T11:23:59.989Z,96347.80
2018-03-17T11:26:29.053Z,96347.12
2018-03-17T11:29:01.726Z,96346.88
2018-03-17T11:31:30.857Z,96351.25
2018-03-17T11:33:59.981Z,96358.17
2018-03-17T11:36:29.020Z,96358.44
2018-03-17T11:38:58.598Z,96351.75
2018-03-17T11:41:27.785Z,96337.78
2018-03-17T11:43:59.312Z,96336.20
2018-03-17T11:46:28.442Z,96339.66
2018-03-17T12:00:36.830Z,96331.98
2018-03-17T12:03:05.914Z,96329.59
2018-03-17T12:05:35.029Z,96324.28
2018-03-17T12:08:04.552Z,96328.31
2018-03-17T12:10:33.669Z,96317.05
2018-03-17T12:13:02.742Z,96311.67
2018-03-17T12:15:31.879Z,96308.61
2018-03-17T12:18:01.426Z,96302.53
2018-03-17T12:20:49.971Z,96300.12
2018-03-17T12:23:22.031Z,96295.50
2018-03-17T12:25:51.242Z,96294.61
2018-03-17T12:28:20.457Z,96289.00
2018-03-17T12:30:49.888Z,96286.00
2018-03-17T12:33:18.932Z,96282.16
2018-03-17T12:35:48.061Z,96283.63
2018-03-17T12:38:17.507Z,96278.91
2018-03-17T12:40:46.531Z,96284.48
2018-03-17T12:43:15.578Z,96285.80
2018-03-17T12:45:46.937Z,96286.35
2018-03-17T12:48:16.038Z,96287.14
2018-03-17T12:50:45.154Z,96276.70
2018-03-17T12:53:14.705Z,96282.20
2018-03-17T12:55:43.868Z,96282.65
2018-03-17T12:58:13.065Z,96281.17
2018-03-17T13:00:42.537Z,96280.20
2018-03-17T13:03:11.620Z,96280.30
2018-03-17T13:05:40.713Z,96276.34
2018-03-17T13:08:11.109Z,96265.03
2018-03-17T13:10:40.190Z,96270.87
2018-03-17T13:13:09.278Z,96272.85
2018-03-17T13:15:38.586Z,96275.61
2018-03-17T13:18:08.586Z,96270.81
2018-03-17T13:20:37.653Z,96264.17
2018-03-17T13:23:15.423Z,96267.88
2018-03-17T13:25:44.528Z,96267.42
2018-03-17T13:28:23.570Z,96262.66
2018-03-17T13:30:52.700Z,96269.94
2018-03-17T13:33:21.910Z,96254.97
2018-03-17T13:38:03.133Z,96265.59
2018-03-17T13:40:34.193Z,96262.06
2018-03-17T13:43:03.371Z,96275.06
2018-03-17T13:45:32.456Z,96274.94
2018-03-17T13:48:02.865Z,96273.84
2018-03-17T13:50:33.415Z,96275.77
2018-03-17T13:53:02.685Z,96274.59
2018-03-17T13:55:31.907Z,96266.91
2018-03-17T13:58:01.218Z,96271.70
2018-03-17T14:00:30.493Z,96272.45
2018-03-17T14:02:59.781Z,96281.45
2018-03-17T14:05:28.923Z,96280.01
2018-03-17T14:07:58.495Z,96276.47
2018-03-17T14:10:27.670Z,96276.69
2018-03-17T14:12:57.208Z,96276.74
2018-03-17T14:15:26.941Z,96271.52
2018-03-17T14:17:56.109Z,96281.28
2018-03-17T14:20:25.294Z,96277.90
2018-03-17T14:22:54.333Z,96272.43
2018-03-17T14:25:23.513Z,96276.98
2018-03-17T14:27:54.315Z,96279.45
2018-03-17T14:30:24.601Z,96276.88
2018-03-17T14:32:54.920Z,96277.69
2018-03-17T14:35:28.097Z,96277.29
2018-03-17T14:37:57.581Z,96278.70
2018-03-17T14:40:27.604Z,96283.87
2018-03-17T14:42:56.998Z,96281.89
2018-03-17T14:45:26.272Z,96282.37
2018-03-17T14:47:55.757Z,96272.84
2018-03-17T14:50:24.880Z,96279.61
2018-03-17T14:52:54.525Z,96286.95
2018-03-17T14:55:23.696Z,96289.00
2018-03-17T14:57:52.810Z,96287.17
2018-03-17T15:00:21.995Z,96288.84
2018-03-17T15:02:51.408Z,96281.09
2018-03-17T15:05:20.514Z,96278.51
2018-03-17T15:08:01.094Z,96284.68
2018-03-17T15:10:31.794Z,96282.08
2018-03-17T15:13:01.182Z,96289.70
2018-03-17T15:15:31.018Z,96293.03
2018-03-17T15:18:02.079Z,96288.20
2018-03-17T15:20:31.615Z,96282.61
2018-03-17T15:23:01.307Z,96279.12
2018-03-17T15:25:31.673Z,96282.45
2018-03-17T15:28:00.737Z,96283.30
2018-03-17T15:30:29.897Z,96278.02
2018-03-17T15:32:59.400Z,96286.27
2018-03-17T15:35:28.531Z,96278.20
2018-03-17T15:37:57.557Z,96286.88
2018-03-17T15:40:26.887Z,96285.27
2018-03-17T15:42:56.398Z,96289.47
2018-03-17T15:45:25.896Z,96287.23
2018-03-17T15:47:55.088Z,96283.70
2018-03-17T15:50:24.234Z,96283.12
2018-03-17T15:52:53.640Z,96282.37
2018-03-17T15:55:24.435Z,96289.86
2018-03-17T15:57:53.630Z,96285.19
2018-03-17T16:00:24.667Z,96282.66
2018-03-17T16:02:54.506Z,96282.20
2018-03-17T16:05:24.134Z,96279.69
2018-03-17T16:07:53.811Z,96281.92
2018-03-17T16:10:22.926Z,96287.22
2018-03-17T16:12:52.088Z,96276.98
2018-03-17T16:15:21.358Z,96275.91
2018-03-17T16:17:51.797Z,96276.84
2018-03-17T16:20:20.898Z,96280.53
2018-03-17T16:22:52.593Z,96281.95
2018-03-17T16:25:21.761Z,96271.52
2018-03-17T16:27:51.039Z,96281.35
2018-03-17T16:30:20.208Z,96284.88
2018-03-17T16:32:49.821Z,96288.73
2018-03-17T16:35:19.268Z,96285.91
2018-03-17T16:37:49.387Z,96289.53
2018-03-17T16:40:18.566Z,96305.52
2018-03-17T16:42:48.263Z,96297.73
2018-03-17T16:45:17.336Z,96301.23
2018-03-17T16:47:46.530Z,96295.13
2018-03-17T16:50:16.907Z,96307.62
2018-03-17T16:52:45.965Z,96316.05
2018-03-17T16:55:15.756Z,96317.09
2018-03-17T16:57:46.107Z,96321.02
2018-03-17T17:00:15.389Z,96319.50
2018-03-17T17:02:45.512Z,96322.30
2018-03-17T17:05:15.154Z,96322.86
2018-03-17T17:07:44.171Z,96328.77
2018-03-17T17:10:13.266Z,96325.39
2018-03-17T17:12:47.813Z,96336.42
2018-03-17T17:15:17.024Z,96334.88
2018-03-17T17:17:46.410Z,96346.12
2018-03-17T17:20:15.843Z,96349.84
2018-03-17T17:22:45.484Z,96344.25
2018-03-17T17:25:14.637Z,96341.13
2018-03-17T17:27:46.162Z,96343.27
2018-03-17T17:30:15.452Z,96352.95
2018-03-17T17:32:44.585Z,96348.81
2018-03-17T17:35:15.068Z,96351.95
2018-03-17T17:37:44.162Z,96348.64
2018-03-17T17:40:13.254Z,96353.91
2018-03-17T17:42:42.453Z,96362.17
2018-03-17T17:45:11.579Z,96362.94
2018-03-17T17:47:41.569Z,96365.91
2018-03-17T17:50:13.370Z,96371.31
2018-03-17T17:52:42.546Z,96368.83
2018-03-17T17:55:11.768Z,96364.72
2018-03-17T17:57:41.121Z,96363.70
2018-03-17T18:00:10.293Z,96370.00
2018-03-17T18:02:39.382Z,96373.67
2018-03-17T18:05:08.997Z,96366.45
2018-03-17T18:07:39.247Z,96379.81
2018-03-17T18:10:08.413Z,96379.59
2018-03-17T18:12:39.066Z,96376.28
2018-03-17T18:15:08.357Z,96378.84
2018-03-17T18:17:38.050Z,96380.34
2018-03-17T18:20:12.679Z,96377.30
2018-03-17T18:22:42.306Z,96381.88
2018-03-17T18:25:12.060Z,96385.22
2018-03-17T18:27:44.372Z,96386.55
2018-03-17T18:30:13.607Z,96385.63
2018-03-17T18:32:42.967Z,96386.91
2018-03-17T18:35:17.636Z,96384.05
2018-03-17T18:37:46.918Z,96387.47
2018-03-17T18:40:16.487Z,96388.39
2018-03-17T18:42:52.004Z,96389.48
2018-03-17T18:45:21.255Z,96391.97
2018-03-17T18:53:50.607Z,96386.19
2018-03-17T18:56:19.706Z,96396.55
2018-03-17T18:58:52.072Z,96399.50
2018-03-17T19:01:21.763Z,96399.39
2018-03-17T19:03:50.981Z,96401.41
2018-03-17T19:06:20.530Z,96395.86
2018-03-17T19:08:51.763Z,96402.06
2018-03-17T19:11:20.826Z,96403.95
2018-03-17T19:13:51.259Z,96407.30
2018-03-17T19:16:20.857Z,96404.91
2018-03-17T19:18:55.854Z,96405.44
2018-03-17T19:21:24.970Z,96395.98
2018-03-17T19:23:55.340Z,96400.95
2018-03-17T19:26:24.675Z,96405.59
2018-03-17T19:28:55.196Z,96408.16
2018-03-17T19:31:24.397Z,96414.38
2018-03-17T19:33:53.815Z,96417.13
2018-03-17T19:36:23.071Z,96417.33
2018-03-17T19:38:52.439Z,96419.47
2018-03-17T19:41:22.141Z,96421.39
2018-03-17T19:43:51.438Z,96412.31
2018-03-17T19:46:21.082Z,96416.34
2018-03-17T19:48:50.495Z,96419.44
2018-03-17T19:52:35.228Z,96417.70
2018-03-17T19:55:04.679Z,96414.09
2018-03-17T19:57:34.939Z,96417.41
2018-03-17T20:00:04.203Z,96418.19
2018-03-17T20:02:36.247Z,96419.31
2018-03-17T20:05:05.395Z,96429.58
2018-03-17T20:07:34.620Z,96427.04
2018-03-17T20:10:03.895Z,96426.72
2018-03-17T20:12:33.040Z,96427.16
2018-03-17T20:15:04.957Z,96419.47
2018-03-17T20:17:36.659Z,96431.91
2018-03-17T20:20:05.999Z,96425.36
2018-03-17T20:22:35.518Z,96426.25
2018-03-17T20:25:05.432Z,96427.39
2018-03-17T20:27:35.447Z,96432.31
2018-03-17T20:30:05.158Z,96433.92
2018-03-17T20:32:34.820Z,96434.69
2018-03-17T20:35:04.133Z,96436.41
2018-03-17T20:37:33.539Z,96434.51
2018-03-17T20:40:03.032Z,96438.02
2018-03-17T20:42:32.160Z,96438.88
2018-03-17T20:45:02.254Z,96441.58
2018-03-17T20:47:31.484Z,96443.45
2018-03-17T20:50:01.561Z,96448.34
2018-03-17T20:52:30.756Z,96439.81
2018-03-17T20:55:01.746Z,96449.17
2018-03-17T20:57:30.895Z,96442.25
2018-03-17T21:00:01.123Z,96448.59
2018-03-17T21:02:34.920Z,96449.02
2018-03-17T21:05:04.394Z,96449.30
2018-03-17T21:07:33.787Z,96443.77
2018-03-17T21:10:03.180Z,96448.33
2018-03-17T21:12:32.233Z,96449.36
2018-03-17T21:15:01.443Z,96449.13
2018-03-17T21:17:31.164Z,96452.30
2018-03-17T21:20:01.458Z,96455.38
2018-03-17T21:22:30.764Z,96453.12
2018-03-17T21:25:01.697Z,96459.60
2018-03-17T21:27:30.784Z,96461.31
2018-03-17T21:29:59.979Z,96462.72
2018-03-17T21:32:29.505Z,96459.86
2018-03-17T21:34:59.673Z,96458.55
2018-03-17T21:37:31.021Z,96455.53
2018-03-17T21:40:01.036Z,96464.91
2018-03-17T21:42:30.364Z,96470.47
2018-03-17T21:44:59.556Z,96472.86
2018-03-17T21:47:28.789Z,96469.17
2018-03-17T21:49:58.122Z,96474.95
2018-03-17T21:52:27.297Z,96477.68
2018-03-17T21:54:56.628Z,96478.22
2018-03-17T21:57:26.515Z,96471.63
2018-03-17T21:59:55.996Z,96476.53
2018-03-17T22:02:26.222Z,96476.95
2018-03-17T22:04:55.298Z,96479.41
2018-03-17T22:07:24.369Z,96477.54
2018-03-17T22:09:53.553Z,96477.38
2018-03-17T22:12:23.180Z,96475.23
2018-03-17T22:14:52.261Z,96475.47
2018-03-17T22:17:21.682Z,96476.53
2018-03-17T22:19:54.227Z,96483.73
2018-03-17T22:22:23.425Z,96484.23
2018-03-17T22:24:52.493Z,96482.83
2018-03-17T22:27:21.752Z,96480.56
2018-03-17T22:29:50.844Z,96493.42
2018-03-17T22:32:19.870Z,96487.00
2018-03-17T22:34:50.436Z,96488.58
2018-03-17T22:37:25.966Z,96494.23
2018-03-17T22:39:55.047Z,96491.80
2018-03-17T22:42:24.262Z,96489.30
2018-03-17T22:44:53.355Z,96493.79
2018-03-17T22:47:22.432Z,96495.52
2018-03-17T22:49:51.637Z,96497.09
2018-03-17T22:52:20.854Z,96500.78
2018-03-17T22:54:49.992Z,96494.65
2018-03-17T22:57:20.550Z,96498.02
2018-03-17T22:59:49.637Z,96498.26
2018-03-17T23:02:19.588Z,96503.06
2018-03-17T23:04:49.051Z,96504.23
2018-03-17T23:07:18.189Z,96498.22
2018-03-17T23:09:47.640Z,96503.47
2018-03-17T23:12:17.612Z,96506.11
2018-03-17T23:14:46.917Z,96501.28
2018-03-17T23:17:16.403Z,96505.83
2018-03-17T23:19:45.925Z,96500.36
2018-03-17T23:22:14.992Z,96504.63
2018-03-17T23:24:44.258Z,96504.75
2018-03-17T23:27:16.661Z,96495.02
2018-03-17T23:29:45.870Z,96508.82
2018-03-17T23:32:16.219Z,96505.45
2018-03-17T23:34:45.804Z,96508.41
2018-03-17T23:37:15.043Z,96510.67
2018-03-17T23:39:45.722Z,96514.42
2018-03-17T23:42:15.118Z,96512.14
2018-03-17T23:44:46.048Z,96510.34
2018-03-17T23:47:16.060Z,96510.08
2018-03-17T23:49:45.250Z,96508.78
2018-03-17T23:52:14.631Z,96510.69
2018-03-17T23:54:45.734Z,96512.34
2018-03-17T23:57:14.977Z,96505.25
2018-03-17T23:59:46.685Z,96508.91
